Time;durP1;ratioP1;P1;durP2;ratioP2;P2;SDS_P1;SDS_P2;PMS_P1;PMS_P2;Temp;Humidity;BMP_temperature;BMP_pressure;BME280_temperature;BME280_humidity;BME280_pressure;Samples;Min_cycle;Max_cycle;Signal;HPM_P1;HPM_P2
2022/09/16 00:00:58;;;;;;;2.17;1.10;;;;;;;;;;5074605;28;20485;-51
2022/09/16 00:03:25;;;;;;;1.50;1.10;;;;;;;;;;5074693;28;20448;-50
2022/09/16 00:05:53;;;;;;;1.50;1.00;;;;;;;;;;5074833;28;20463;-50
2022/09/16 00:08:20;;;;;;;3.93;1.20;;;;;;;;;;5074851;28;20455;-52
2022/09/16 00:10:49;;;;;;;1.53;1.17;;;;;;;;;;5074741;28;20503;-54
2022/09/16 00:13:16;;;;;;;3.00;1.20;;;;;;;;;;5074628;28;20862;-52
2022/09/16 00:15:44;;;;;;;2.13;1.13;;;;;;;;;;5074490;28;20784;-49
2022/09/16 00:18:11;;;;;;;4.23;0.90;;;;;;;;;;5074419;28;21011;-54
2022/09/16 00:20:38;;;;;;;4.73;1.23;;;;;;;;;;5074487;28;20455;-53
2022/09/16 00:23:05;;;;;;;2.53;1.10;;;;;;;;;;5074461;28;20443;-52
2022/09/16 00:25:33;;;;;;;3.03;1.10;;;;;;;;;;5074175;28;20471;-50
2022/09/16 00:28:01;;;;;;;2.03;0.90;;;;;;;;;;5074254;28;20446;-50
2022/09/16 00:30:28;;;;;;;1.27;0.90;;;;;;;;;;5074238;28;20470;-51
2022/09/16 00:32:55;;;;;;;1.20;0.83;;;;;;;;;;5074253;28;20443;-53
2022/09/16 00:35:22;;;;;;;3.90;1.30;;;;;;;;;;5074254;28;20462;-51
2022/09/16 00:37:49;;;;;;;2.13;1.10;;;;;;;;;;5074130;28;20447;-55
2022/09/16 00:40:16;;;;;;;1.57;1.00;;;;;;;;;;5074013;28;20780;-51
2022/09/16 00:42:43;;;;;;;3.53;1.10;;;;;;;;;;5073828;28;20483;-52
2022/09/16 00:45:16;;;;;;;1.73;0.80;;;;;;;;;;5073788;28;20450;-54
2022/09/16 00:47:44;;;;;;;3.87;1.03;;;;;;;;;;5073801;28;20562;-52
2022/09/16 00:50:14;;;;;;;1.80;1.20;;;;;;;;;;5073740;28;20946;-55
2022/09/16 00:52:41;;;;;;;3.63;0.80;;;;;;;;;;5073839;28;20542;-50
2022/09/16 00:55:10;;;;;;;1.03;0.90;;;;;;;;;;5073750;28;20454;-53
2022/09/16 00:57:38;;;;;;;1.57;1.23;;;;;;;;;;5073607;28;20455;-50
2022/09/16 01:00:06;;;;;;;2.07;1.47;;;;;;;;;;5073818;28;20447;-54
2022/09/16 01:02:35;;;;;;;1.70;1.10;;;;;;;;;;5073600;28;20514;-50
2022/09/16 01:05:04;;;;;;;2.23;1.40;;;;;;;;;;5073627;28;20448;-56
2022/09/16 01:07:33;;;;;;;0.83;0.83;;;;;;;;;;5073509;28;20455;-52
2022/09/16 01:10:00;;;;;;;3.30;1.10;;;;;;;;;;5073339;28;20968;-55
2022/09/16 01:12:28;;;;;;;1.73;0.90;;;;;;;;;;5073540;28;20452;-56
2022/09/16 01:14:57;;;;;;;1.70;1.10;;;;;;;;;;5073532;28;20443;-55
2022/09/16 01:17:29;;;;;;;2.10;1.00;;;;;;;;;;5073429;28;20483;-56
2022/09/16 01:20:11;;;;;;;1.33;0.80;;;;;;;;;;5073355;28;20446;-56
2022/09/16 01:22:46;;;;;;;2.57;1.50;;;;;;;;;;5073195;28;20479;-56
2022/09/16 01:25:21;;;;;;;2.03;1.00;;;;;;;;;;5073407;28;20535;-54
2022/09/16 01:28:03;;;;;;;3.83;1.03;;;;;;;;;;5073317;28;20859;-56
2022/09/16 01:30:53;;;;;;;1.27;1.00;;;;;;;;;;5060670;28;20449;-56
2022/09/16 01:33:25;;;;;;;2.47;1.10;;;;;;;;;;5073348;28;20879;-56
2022/09/16 01:36:01;;;;;;;1.73;1.10;;;;;;;;;;5073236;28;20447;-56
2022/09/16 01:38:34;;;;;;;1.53;0.90;;;;;;;;;;5072618;28;20784;-57
2022/09/16 01:41:05;;;;;;;1.57;0.80;;;;;;;;;;5072996;28;20457;-55
2022/09/16 01:43:37;;;;;;;2.40;0.83;;;;;;;;;;5073237;28;20436;-55
2022/09/16 01:46:07;;;;;;;1.93;1.10;;;;;;;;;;5073084;28;20451;-56
2022/09/16 01:48:36;;;;;;;2.70;0.90;;;;;;;;;;5072795;28;20566;-55
2022/09/16 01:51:06;;;;;;;2.07;0.90;;;;;;;;;;5072832;28;20947;-56
2022/09/16 01:53:34;;;;;;;2.13;1.10;;;;;;;;;;5072865;28;20445;-54
2022/09/16 01:56:03;;;;;;;3.70;1.30;;;;;;;;;;5072759;28;20447;-55
2022/09/16 01:58:34;;;;;;;1.53;1.00;;;;;;;;;;5072974;28;21018;-56
2022/09/16 02:01:04;;;;;;;1.27;1.00;;;;;;;;;;5072826;28;20538;-56
2022/09/16 02:03:34;;;;;;;2.43;1.10;;;;;;;;;;5072790;28;20538;-56
2022/09/16 02:06:03;;;;;;;3.90;2.33;;;;;;;;;;5072810;28;20448;-55
2022/09/16 02:08:32;;;;;;;2.30;1.20;;;;;;;;;;5072637;28;20862;-55
2022/09/16 02:11:00;;;;;;;1.33;1.10;;;;;;;;;;5072865;28;20542;-55
2022/09/16 02:13:30;;;;;;;3.43;1.10;;;;;;;;;;5072823;28;20447;-53
2022/09/16 02:15:59;;;;;;;1.33;1.20;;;;;;;;;;5072690;28;20447;-55
2022/09/16 02:18:29;;;;;;;2.87;1.37;;;;;;;;;;5072639;28;20497;-53
2022/09/16 02:20:58;;;;;;;1.40;0.93;;;;;;;;;;5072502;28;20447;-52
2022/09/16 02:23:26;;;;;;;1.63;1.20;;;;;;;;;;5072913;28;20451;-52
2022/09/16 02:25:55;;;;;;;2.37;1.23;;;;;;;;;;5072653;28;20451;-50
2022/09/16 02:28:25;;;;;;;2.67;1.30;;;;;;;;;;5072555;28;20993;-53
2022/09/16 02:30:53;;;;;;;1.57;1.47;;;;;;;;;;5072531;28;20447;-56
2022/09/16 02:33:21;;;;;;;1.60;1.50;;;;;;;;;;5072407;28;20547;-52
2022/09/16 02:35:49;;;;;;;5.97;1.40;;;;;;;;;;5072393;28;20965;-55
2022/09/16 02:38:20;;;;;;;3.10;1.60;;;;;;;;;;5072563;28;20439;-53
2022/09/16 02:40:49;;;;;;;2.50;1.07;;;;;;;;;;5072481;28;20454;-53
2022/09/16 02:43:16;;;;;;;2.57;1.17;;;;;;;;;;5072295;28;21039;-53
2022/09/16 02:45:46;;;;;;;3.13;1.57;;;;;;;;;;5072368;28;20452;-50
2022/09/16 02:48:15;;;;;;;3.03;1.47;;;;;;;;;;5072474;28;20478;-50
2022/09/16 02:50:48;;;;;;;1.97;1.47;;;;;;;;;;5074447;28;20447;-50
2022/09/16 02:53:20;;;;;;;1.90;1.40;;;;;;;;;;5076239;28;20458;-52
2022/09/16 02:55:51;;;;;;;7.27;1.50;;;;;;;;;;5076110;28;20810;-50
2022/09/16 02:58:18;;;;;;;3.53;1.63;;;;;;;;;;5075892;28;20451;-55
2022/09/16 03:00:47;;;;;;;4.10;1.50;;;;;;;;;;5076108;28;20483;-51
2022/09/16 03:03:14;;;;;;;1.70;1.40;;;;;;;;;;5075951;28;20493;-51
2022/09/16 03:05:58;;;;;;;4.00;1.47;;;;;;;;;;5075892;28;20447;-53
2022/09/16 03:08:25;;;;;;;2.80;1.60;;;;;;;;;;5075814;28;20966;-50
2022/09/16 03:10:53;;;;;;;1.47;1.37;;;;;;;;;;5075659;28;20457;-53
2022/09/16 03:13:23;;;;;;;3.43;1.53;;;;;;;;;;5076031;28;20463;-56
2022/09/16 03:15:56;;;;;;;2.80;1.93;;;;;;;;;;5075759;28;20447;-56
2022/09/16 03:18:28;;;;;;;2.27;1.50;;;;;;;;;;5075614;28;21016;-51
2022/09/16 03:21:00;;;;;;;5.90;1.50;;;;;;;;;;5075619;28;20812;-56
2022/09/16 03:23:33;;;;;;;4.50;1.90;;;;;;;;;;5075372;28;20479;-56
2022/09/16 03:26:06;;;;;;;2.73;1.80;;;;;;;;;;5075424;28;20449;-56
2022/09/16 03:28:37;;;;;;;3.83;2.03;;;;;;;;;;5075413;28;20447;-55
2022/09/16 03:31:06;;;;;;;3.40;1.67;;;;;;;;;;5075421;28;20450;-55
2022/09/16 03:33:36;;;;;;;3.07;1.60;;;;;;;;;;5075343;28;20620;-55
2022/09/16 03:36:05;;;;;;;3.27;2.00;;;;;;;;;;5075439;28;20454;-56
2022/09/16 03:38:34;;;;;;;3.83;1.60;;;;;;;;;;5075342;28;20453;-54
2022/09/16 03:41:04;;;;;;;3.43;1.90;;;;;;;;;;5075253;28;20566;-55
2022/09/16 03:43:30;;;;;;;3.50;1.40;;;;;;;;;;5075078;28;20483;-56
2022/09/16 03:45:57;;;;;;;3.77;1.50;;;;;;;;;;5075109;28;20482;-56
2022/09/16 03:48:25;;;;;;;6.03;1.80;;;;;;;;;;5074673;28;20830;-56
2022/09/16 03:50:53;;;;;;;3.40;1.80;;;;;;;;;;5075151;28;20427;-56
2022/09/16 03:53:20;;;;;;;2.77;1.70;;;;;;;;;;5075111;28;20466;-55
2022/09/16 03:55:49;;;;;;;3.90;1.60;;;;;;;;;;5074946;28;20818;-55
2022/09/16 03:58:17;;;;;;;6.00;1.93;;;;;;;;;;5074857;28;20458;-55
2022/09/16 04:00:44;;;;;;;2.83;1.50;;;;;;;;;;5074205;28;20456;-55
2022/09/16 04:03:11;;;;;;;4.00;2.40;;;;;;;;;;5074868;28;21017;-56
2022/09/16 04:05:38;;;;;;;5.80;2.10;;;;;;;;;;5074805;28;20447;-56
2022/09/16 04:08:05;;;;;;;2.83;2.00;;;;;;;;;;5074752;28;20451;-56
2022/09/16 04:10:33;;;;;;;3.40;2.00;;;;;;;;;;5074654;28;20474;-54
2022/09/16 04:13:00;;;;;;;5.70;2.30;;;;;;;;;;5074599;28;20593;-53
2022/09/16 04:15:29;;;;;;;3.87;2.33;;;;;;;;;;5074465;28;20459;-51
2022/09/16 04:17:56;;;;;;;4.43;2.03;;;;;;;;;;5074654;28;20543;-50
2022/09/16 04:20:23;;;;;;;2.33;1.80;;;;;;;;;;5074488;28;20630;-52
2022/09/16 04:22:50;;;;;;;3.40;2.10;;;;;;;;;;5074163;28;20510;-51
2022/09/16 04:25:17;;;;;;;6.63;2.03;;;;;;;;;;5074303;28;20447;-52
2022/09/16 04:27:44;;;;;;;4.20;2.03;;;;;;;;;;5074266;28;20536;-51
2022/09/16 04:30:12;;;;;;;8.70;2.50;;;;;;;;;;5074133;28;20826;-49
2022/09/16 04:32:40;;;;;;;5.93;2.87;;;;;;;;;;5074276;28;20454;-52
2022/09/16 04:35:07;;;;;;;3.33;1.73;;;;;;;;;;5074172;28;20535;-51
2022/09/16 04:37:34;;;;;;;5.67;1.97;;;;;;;;;;5074085;28;20447;-53
2022/09/16 04:40:01;;;;;;;4.37;2.80;;;;;;;;;;5074057;28;20546;-55
2022/09/16 04:42:28;;;;;;;3.60;2.20;;;;;;;;;;5073741;28;20522;-54
2022/09/16 04:44:56;;;;;;;7.23;2.40;;;;;;;;;;5074052;28;20455;-53
2022/09/16 04:47:23;;;;;;;8.30;2.60;;;;;;;;;;5073633;28;21002;-55
2022/09/16 04:49:51;;;;;;;2.83;2.57;;;;;;;;;;5073894;28;20546;-54
2022/09/16 04:52:18;;;;;;;3.63;1.87;;;;;;;;;;5073514;28;20479;-55
2022/09/16 04:54:45;;;;;;;5.10;2.60;;;;;;;;;;5073606;28;20891;-54
2022/09/16 04:57:12;;;;;;;3.03;2.40;;;;;;;;;;5073569;28;20444;-55
2022/09/16 04:59:39;;;;;;;5.20;2.30;;;;;;;;;;5074019;28;20534;-55
2022/09/16 05:02:06;;;;;;;3.93;2.07;;;;;;;;;;5073608;28;20450;-52
2022/09/16 05:04:33;;;;;;;5.57;2.00;;;;;;;;;;5073596;28;20452;-55
2022/09/16 05:07:02;;;;;;;3.20;2.20;;;;;;;;;;5073506;28;20448;-53
2022/09/16 05:09:29;;;;;;;4.37;2.10;;;;;;;;;;5073349;28;20444;-53
2022/09/16 05:11:55;;;;;;;6.67;2.47;;;;;;;;;;5072989;28;20538;-55
2022/09/16 05:14:22;;;;;;;2.73;1.97;;;;;;;;;;5072854;28;20458;-55
2022/09/16 05:16:49;;;;;;;3.40;2.23;;;;;;;;;;5073377;28;20454;-51
2022/09/16 05:19:16;;;;;;;2.53;2.33;;;;;;;;;;5073215;28;20451;-55
2022/09/16 05:21:43;;;;;;;5.97;2.00;;;;;;;;;;5072994;28;20965;-53
2022/09/16 05:24:13;;;;;;;4.80;2.10;;;;;;;;;;5072919;28;20485;-53
2022/09/16 05:26:42;;;;;;;2.70;2.53;;;;;;;;;;5073367;28;20447;-54
2022/09/16 05:29:09;;;;;;;5.20;2.00;;;;;;;;;;5073049;28;20535;-51
2022/09/16 05:31:37;;;;;;;4.00;2.27;;;;;;;;;;5073160;28;20450;-54
2022/09/16 05:34:05;;;;;;;3.13;1.80;;;;;;;;;;5072858;28;20961;-55
2022/09/16 05:36:33;;;;;;;3.60;2.10;;;;;;;;;;5072816;28;20447;-51
2022/09/16 05:39:01;;;;;;;5.10;2.10;;;;;;;;;;5073080;28;20450;-54
2022/09/16 05:41:29;;;;;;;2.87;1.60;;;;;;;;;;5073039;28;20447;-49
2022/09/16 05:43:58;;;;;;;4.93;2.23;;;;;;;;;;5072743;28;21020;-52
2022/09/16 05:46:25;;;;;;;2.80;1.70;;;;;;;;;;5072752;28;20943;-54
2022/09/16 05:48:52;;;;;;;3.53;1.63;;;;;;;;;;5072559;28;20818;-51
2022/09/16 05:51:21;;;;;;;2.30;2.03;;;;;;;;;;5072623;28;20538;-51
2022/09/16 05:53:48;;;;;;;5.97;2.10;;;;;;;;;;5072674;28;21010;-50
2022/09/16 05:56:16;;;;;;;2.70;1.50;;;;;;;;;;5072739;28;20793;-51
2022/09/16 05:58:45;;;;;;;3.43;1.90;;;;;;;;;;5072757;28;20877;-51
2022/09/16 06:01:13;;;;;;;2.60;1.60;;;;;;;;;;5072767;28;20454;-50
2022/09/16 06:03:41;;;;;;;3.10;1.63;;;;;;;;;;5072571;28;20479;-53
2022/09/16 06:06:12;;;;;;;2.43;1.33;;;;;;;;;;5072540;28;20473;-51
2022/09/16 06:08:39;;;;;;;5.83;2.30;;;;;;;;;;5072493;28;20946;-50
2022/09/16 06:11:08;;;;;;;4.63;1.70;;;;;;;;;;5072701;28;20453;-49
2022/09/16 06:13:35;;;;;;;4.13;1.80;;;;;;;;;;5072585;28;20453;-49
2022/09/16 06:16:04;;;;;;;6.93;2.60;;;;;;;;;;5072402;28;20505;-51
2022/09/16 06:18:32;;;;;;;2.97;1.90;;;;;;;;;;5072481;28;20918;-52
2022/09/16 06:21:02;;;;;;;7.10;2.00;;;;;;;;;;5072676;28;20530;-50
2022/09/16 06:23:29;;;;;;;2.33;1.80;;;;;;;;;;5072544;28;20489;-49
2022/09/16 06:26:00;;;;;;;3.37;1.77;;;;;;;;;;5076535;28;20469;-51
2022/09/16 06:28:27;;;;;;;3.63;1.90;;;;;;;;;;5076442;28;20455;-52
2022/09/16 06:31:01;;;;;;;5.13;1.63;;;;;;;;;;5076362;28;20877;-50
2022/09/16 06:33:29;;;;;;;3.63;2.10;;;;;;;;;;5076573;28;20443;-49
2022/09/16 06:35:57;;;;;;;3.60;1.80;;;;;;;;;;5076442;28;20799;-49
2022/09/16 06:38:24;;;;;;;4.40;2.27;;;;;;;;;;5076334;28;20458;-50
2022/09/16 06:40:50;;;;;;;9.23;2.20;;;;;;;;;;5076275;28;21014;-50
2022/09/16 06:43:17;;;;;;;2.97;1.63;;;;;;;;;;5075852;28;20482;-52
2022/09/16 06:45:44;;;;;;;6.13;2.17;;;;;;;;;;5076197;28;20439;-55
2022/09/16 06:48:11;;;;;;;5.13;2.00;;;;;;;;;;5075727;28;20650;-51
2022/09/16 06:50:40;;;;;;;2.73;1.50;;;;;;;;;;5075926;28;20457;-54
2022/09/16 06:53:06;;;;;;;5.00;1.97;;;;;;;;;;5075730;28;20451;-53
2022/09/16 06:55:34;;;;;;;2.83;2.10;;;;;;;;;;5073716;28;20447;-55
2022/09/16 06:58:01;;;;;;;2.23;1.93;;;;;;;;;;5075098;28;20439;-53
2022/09/16 07:00:28;;;;;;;5.43;2.00;;;;;;;;;;5082338;28;20949;-54
2022/09/16 07:02:55;;;;;;;1.97;1.40;;;;;;;;;;5075716;28;20470;-53
2022/09/16 07:05:22;;;;;;;4.40;1.67;;;;;;;;;;5075723;28;20740;-53
2022/09/16 07:07:51;;;;;;;5.47;2.17;;;;;;;;;;5075562;28;20573;-53
2022/09/16 07:10:18;;;;;;;3.20;1.50;;;;;;;;;;5075629;28;20443;-52
2022/09/16 07:12:45;;;;;;;1.90;1.13;;;;;;;;;;5075375;28;20501;-52
2022/09/16 07:15:12;;;;;;;2.87;1.63;;;;;;;;;;5075409;28;20953;-52
2022/09/16 07:17:39;;;;;;;4.43;1.17;;;;;;;;;;5075393;28;20447;-51
2022/09/16 07:20:06;;;;;;;4.40;1.73;;;;;;;;;;5075606;28;20443;-53
2022/09/16 07:22:33;;;;;;;3.60;1.50;;;;;;;;;;5075195;28;20443;-52
2022/09/16 07:25:02;;;;;;;2.40;1.30;;;;;;;;;;5075010;28;20450;-54
2022/09/16 07:27:30;;;;;;;6.60;3.40;;;;;;;;;;5075175;28;20956;-54
2022/09/16 07:29:57;;;;;;;3.93;1.50;;;;;;;;;;5075174;28;20954;-51
2022/09/16 07:32:24;;;;;;;1.90;1.20;;;;;;;;;;5075307;28;20447;-52
2022/09/16 07:34:52;;;;;;;4.17;1.43;;;;;;;;;;5075156;28;20451;-53
2022/09/16 07:37:20;;;;;;;3.53;1.90;;;;;;;;;;5074090;28;20448;-53
2022/09/16 07:39:49;;;;;;;4.77;1.30;;;;;;;;;;5074820;28;20527;-55
2022/09/16 07:42:17;;;;;;;1.70;1.47;;;;;;;;;;5075013;28;20447;-56
2022/09/16 07:44:44;;;;;;;3.63;1.30;;;;;;;;;;5074867;28;20483;-52
2022/09/16 07:47:11;;;;;;;3.17;1.80;;;;;;;;;;5074962;28;20963;-51
2022/09/16 07:49:38;;;;;;;2.73;1.20;;;;;;;;;;5074926;28;20458;-52
2022/09/16 07:52:05;;;;;;;2.27;1.40;;;;;;;;;;5074709;28;20454;-57
2022/09/16 07:54:32;;;;;;;4.10;1.43;;;;;;;;;;5075030;28;20451;-56
2022/09/16 07:56:59;;;;;;;6.43;1.87;;;;;;;;;;5074882;28;20458;-51
2022/09/16 07:59:27;;;;;;;3.23;1.20;;;;;;;;;;5074737;28;20493;-55
2022/09/16 08:01:54;;;;;;;2.30;1.43;;;;;;;;;;5074540;28;20454;-56
2022/09/16 08:04:21;;;;;;;3.57;1.40;;;;;;;;;;5074443;28;20532;-54
2022/09/16 08:06:48;;;;;;;4.70;1.50;;;;;;;;;;5074522;28;20483;-53
2022/09/16 08:09:15;;;;;;;2.00;1.23;;;;;;;;;;5074643;28;20816;-55
2022/09/16 08:11:42;;;;;;;3.40;1.20;;;;;;;;;;5074475;28;20446;-56
2022/09/16 08:14:09;;;;;;;3.80;1.30;;;;;;;;;;5074355;28;20946;-54
2022/09/16 08:16:37;;;;;;;2.10;0.90;;;;;;;;;;5074379;28;20450;-56
2022/09/16 08:19:04;;;;;;;2.63;1.20;;;;;;;;;;5074262;28;20450;-56
2022/09/16 08:21:31;;;;;;;3.00;1.10;;;;;;;;;;5074175;28;20439;-52
2022/09/16 08:23:58;;;;;;;1.50;1.40;;;;;;;;;;5074255;28;20483;-55
2022/09/16 08:26:25;;;;;;;4.27;1.53;;;;;;;;;;5074301;28;20546;-51
2022/09/16 08:28:52;;;;;;;1.30;1.10;;;;;;;;;;5074168;28;20534;-51
2022/09/16 08:31:20;;;;;;;4.27;1.33;;;;;;;;;;5073635;28;20446;-54
2022/09/16 08:33:48;;;;;;;5.73;1.60;;;;;;;;;;5073363;28;20501;-54
2022/09/16 08:36:16;;;;;;;3.83;2.07;;;;;;;;;;5073685;28;20802;-55
2022/09/16 08:38:44;;;;;;;2.00;1.17;;;;;;;;;;5070739;28;20447;-54
2022/09/16 08:41:25;;;;;;;3.97;1.40;;;;;;;;;;5073692;28;20467;-52
2022/09/16 08:43:56;;;;;;;2.10;1.27;;;;;;;;;;5073660;28;20559;-57
2022/09/16 08:46:31;;;;;;;1.67;1.17;;;;;;;;;;5073549;28;20470;-54
2022/09/16 08:49:00;;;;;;;5.57;2.80;;;;;;;;;;5073518;28;20544;-53
2022/09/16 08:51:28;;;;;;;3.83;1.40;;;;;;;;;;5073446;28;20447;-54
2022/09/16 08:53:58;;;;;;;2.90;1.20;;;;;;;;;;5073352;28;20452;-51
2022/09/16 08:56:26;;;;;;;2.47;1.30;;;;;;;;;;5073516;28;20456;-56
2022/09/16 08:58:55;;;;;;;7.07;1.47;;;;;;;;;;5072815;28;20443;-55
2022/09/16 09:01:30;;;;;;;6.07;1.60;;;;;;;;;;5072954;28;20904;-55
2022/09/16 09:03:57;;;;;;;3.83;2.20;;;;;;;;;;5070834;28;20479;-51
2022/09/16 09:06:31;;;;;;;3.60;2.00;;;;;;;;;;5072909;28;20448;-55
2022/09/16 09:09:04;;;;;;;5.07;2.03;;;;;;;;;;5073485;28;20450;-53
2022/09/16 09:11:33;;;;;;;2.93;1.23;;;;;;;;;;5073207;28;20486;-55
2022/09/16 09:14:07;;;;;;;3.10;1.07;;;;;;;;;;5072876;28;20450;-53
2022/09/16 09:16:38;;;;;;;2.10;1.10;;;;;;;;;;5070618;28;20958;-51
2022/09/16 09:19:14;;;;;;;1.27;1.00;;;;;;;;;;5070781;28;20529;-54
2022/09/16 09:21:46;;;;;;;3.50;1.30;;;;;;;;;;5089291;28;20446;-55
2022/09/16 09:24:28;;;;;;;2.50;1.37;;;;;;;;;;5089904;28;20480;-54
2022/09/16 09:26:59;;;;;;;2.30;1.30;;;;;;;;;;5073343;28;20452;-51
2022/09/16 09:29:33;;;;;;;2.60;1.00;;;;;;;;;;5072536;28;20451;-55
2022/09/16 09:32:03;;;;;;;3.30;1.33;;;;;;;;;;5072408;28;20447;-54
2022/09/16 09:34:36;;;;;;;8.10;1.63;;;;;;;;;;5073128;28;20561;-56
2022/09/16 09:37:13;;;;;;;3.00;0.90;;;;;;;;;;5073047;28;20498;-51
2022/09/16 09:39:45;;;;;;;1.33;1.00;;;;;;;;;;5072988;28;20533;-55
2022/09/16 09:42:16;;;;;;;2.67;1.27;;;;;;;;;;5072734;28;20449;-54
2022/09/16 09:44:52;;;;;;;2.10;1.20;;;;;;;;;;5072618;28;20525;-52
2022/09/16 09:47:22;;;;;;;4.27;1.03;;;;;;;;;;5072812;28;20612;-55
2022/09/16 09:49:51;;;;;;;2.93;1.00;;;;;;;;;;5072869;28;20534;-53
2022/09/16 09:52:22;;;;;;;4.53;1.00;;;;;;;;;;5072657;28;20447;-57
2022/09/16 09:54:50;;;;;;;3.47;1.20;;;;;;;;;;5072772;28;20443;-55
2022/09/16 09:57:20;;;;;;;3.50;1.10;;;;;;;;;;5072596;28;20455;-55
2022/09/16 09:59:49;;;;;;;3.17;1.60;;;;;;;;;;5072344;28;20444;-55
2022/09/16 10:02:17;;;;;;;3.80;1.20;;;;;;;;;;5072488;28;20534;-55
2022/09/16 10:04:44;;;;;;;5.50;1.20;;;;;;;;;;5072454;28;20483;-54
2022/09/16 10:07:12;;;;;;;3.43;1.53;;;;;;;;;;5072545;28;20458;-55
2022/09/16 10:09:47;;;;;;;3.50;1.27;;;;;;;;;;5072450;28;20530;-58
2022/09/16 10:12:14;;;;;;;3.10;1.40;;;;;;;;;;5072708;28;20449;-59
2022/09/16 10:14:41;;;;;;;3.70;1.27;;;;;;;;;;5072615;28;20447;-59
2022/09/16 10:17:15;;;;;;;2.80;1.30;;;;;;;;;;5072552;28;20477;-60
2022/09/16 10:19:50;;;;;;;3.53;1.37;;;;;;;;;;5072432;28;20444;-59
2022/09/16 10:22:20;;;;;;;3.53;1.57;;;;;;;;;;5071882;28;20447;-59
2022/09/16 10:24:54;;;;;;;2.93;1.13;;;;;;;;;;5072592;28;20479;-59
2022/09/16 10:27:22;;;;;;;10.03;1.00;;;;;;;;;;5072521;28;20523;-59
2022/09/16 10:30:02;;;;;;;4.67;1.47;;;;;;;;;;5072248;28;20819;-59
2022/09/16 10:32:30;;;;;;;1.10;0.77;;;;;;;;;;5072336;28;20546;-59
2022/09/16 10:34:57;;;;;;;3.83;1.50;;;;;;;;;;5071944;28;20483;-60
2022/09/16 10:37:26;;;;;;;5.17;1.00;;;;;;;;;;5072188;28;20447;-58
2022/09/16 10:39:55;;;;;;;2.07;0.90;;;;;;;;;;5072053;28;20939;-58
2022/09/16 10:42:24;;;;;;;3.87;1.03;;;;;;;;;;5072258;28;20855;-58
2022/09/16 10:44:51;;;;;;;5.30;1.20;;;;;;;;;;5071794;28;20514;-60
2022/09/16 10:47:20;;;;;;;2.20;1.00;;;;;;;;;;5071873;28;20541;-60
2022/09/16 10:49:49;;;;;;;1.67;1.07;;;;;;;;;;5072427;28;20479;-59
2022/09/16 10:52:17;;;;;;;2.13;1.10;;;;;;;;;;5071907;28;21025;-59
2022/09/16 10:54:44;;;;;;;3.00;1.03;;;;;;;;;;5072212;28;20455;-60
2022/09/16 10:57:27;;;;;;;4.37;0.83;;;;;;;;;;5072097;28;20493;-60
2022/09/16 10:59:58;;;;;;;1.87;1.10;;;;;;;;;;5072374;28;20505;-60
2022/09/16 11:02:30;;;;;;;3.90;0.90;;;;;;;;;;5071857;28;20939;-60
2022/09/16 11:05:01;;;;;;;3.43;0.93;;;;;;;;;;5071849;28;20483;-59
2022/09/16 11:07:33;;;;;;;2.20;0.90;;;;;;;;;;5071982;28;21116;-60
2022/09/16 11:10:04;;;;;;;2.87;1.10;;;;;;;;;;5071923;28;20452;-60
2022/09/16 11:12:44;;;;;;;4.63;1.33;;;;;;;;;;5075014;28;20455;-60
2022/09/16 11:15:17;;;;;;;5.07;1.00;;;;;;;;;;5075651;28;20447;-60
2022/09/16 11:17:50;;;;;;;2.47;1.37;;;;;;;;;;5075536;28;20485;-59
2022/09/16 11:20:32;;;;;;;4.90;1.30;;;;;;;;;;5075482;28;20451;-59
2022/09/16 11:23:02;;;;;;;2.70;1.43;;;;;;;;;;5075341;28;20453;-58
2022/09/16 11:25:34;;;;;;;2.90;1.07;;;;;;;;;;5075377;28;20573;-60
2022/09/16 11:28:08;;;;;;;2.03;0.90;;;;;;;;;;5075283;28;20447;-58
2022/09/16 11:30:37;;;;;;;1.63;0.90;;;;;;;;;;5075271;28;20451;-58
2022/09/16 11:33:13;;;;;;;1.10;0.83;;;;;;;;;;5075100;28;20443;-58
2022/09/16 11:35:57;;;;;;;2.90;1.37;;;;;;;;;;5075137;28;20443;-58
2022/09/16 11:38:27;;;;;;;3.20;1.00;;;;;;;;;;5075048;28;20479;-58
2022/09/16 11:40:56;;;;;;;3.43;0.87;;;;;;;;;;5075004;28;20469;-57
2022/09/16 11:43:47;;;;;;;3.50;1.00;;;;;;;;;;5074732;28;20444;-58
2022/09/16 11:46:22;;;;;;;4.07;0.90;;;;;;;;;;5064429;28;20475;-58
2022/09/16 11:48:54;;;;;;;2.10;1.00;;;;;;;;;;5074809;28;20475;-58
2022/09/16 11:51:27;;;;;;;2.50;1.10;;;;;;;;;;5074810;28;20475;-58
2022/09/16 11:54:03;;;;;;;2.23;0.90;;;;;;;;;;5074717;28;20806;-58
2022/09/16 11:56:35;;;;;;;2.90;0.90;;;;;;;;;;5074680;28;20942;-58
2022/09/16 11:59:05;;;;;;;4.00;1.10;;;;;;;;;;5074848;28;20451;-57
2022/09/16 12:01:36;;;;;;;3.20;1.20;;;;;;;;;;5074627;28;20443;-58
2022/09/16 12:04:07;;;;;;;2.10;0.97;;;;;;;;;;5074570;28;20905;-58
2022/09/16 12:06:37;;;;;;;2.90;0.80;;;;;;;;;;5074772;28;20501;-57
2022/09/16 12:09:06;;;;;;;1.40;0.80;;;;;;;;;;5074836;28;20454;-58
2022/09/16 12:11:35;;;;;;;1.67;0.80;;;;;;;;;;5074525;28;20448;-58
2022/09/16 12:14:09;;;;;;;2.20;1.10;;;;;;;;;;5074402;28;20855;-58
2022/09/16 12:16:40;;;;;;;2.03;1.20;;;;;;;;;;5074326;28;20475;-58
2022/09/16 12:19:10;;;;;;;4.80;0.90;;;;;;;;;;5074485;28;20490;-57
2022/09/16 12:21:40;;;;;;;3.80;1.23;;;;;;;;;;5073964;28;20810;-58
2022/09/16 12:24:16;;;;;;;2.33;1.00;;;;;;;;;;5074063;28;20447;-57
2022/09/16 12:26:45;;;;;;;4.60;2.80;;;;;;;;;;5074115;28;20473;-58
2022/09/16 12:29:15;;;;;;;4.50;0.93;;;;;;;;;;5073931;28;20501;-58
2022/09/16 12:31:47;;;;;;;1.87;0.90;;;;;;;;;;5074143;28;20451;-58
2022/09/16 12:34:15;;;;;;;1.40;1.00;;;;;;;;;;5073912;28;20452;-58
2022/09/16 12:36:44;;;;;;;4.47;0.73;;;;;;;;;;5073908;28;20455;-58
2022/09/16 12:39:11;;;;;;;1.60;0.80;;;;;;;;;;5073845;28;20451;-57
2022/09/16 12:41:57;;;;;;;3.90;1.47;;;;;;;;;;5073665;28;20455;-57
2022/09/16 12:44:31;;;;;;;4.20;0.90;;;;;;;;;;5073776;28;20447;-58
2022/09/16 12:47:10;;;;;;;3.53;1.00;;;;;;;;;;5073475;28;21045;-58
2022/09/16 12:50:04;;;;;;;1.93;1.20;;;;;;;;;;5073606;28;20451;-58
2022/09/16 12:52:41;;;;;;;1.47;0.70;;;;;;;;;;5049230;28;20466;-58
2022/09/16 12:55:29;;;;;;;1.23;0.97;;;;;;;;;;5073622;28;20450;-58
2022/09/16 12:58:09;;;;;;;2.20;0.90;;;;;;;;;;5073526;28;20959;-58
2022/09/16 13:00:40;;;;;;;3.83;0.90;;;;;;;;;;5073188;28;20826;-58
2022/09/16 13:03:14;;;;;;;2.87;1.00;;;;;;;;;;5073368;28;20538;-60
2022/09/16 13:05:45;;;;;;;2.23;0.80;;;;;;;;;;5073323;28;20489;-58
2022/09/16 13:08:20;;;;;;;2.30;0.90;;;;;;;;;;5073120;28;20458;-58
2022/09/16 13:10:54;;;;;;;10.73;1.37;;;;;;;;;;5072891;28;20455;-58
2022/09/16 13:13:25;;;;;;;1.73;0.80;;;;;;;;;;5073207;28;20451;-58
2022/09/16 13:15:55;;;;;;;2.63;1.00;;;;;;;;;;5073069;28;20470;-58
2022/09/16 13:18:26;;;;;;;2.00;0.80;;;;;;;;;;5072871;28;20946;-58
2022/09/16 13:20:57;;;;;;;3.30;1.00;;;;;;;;;;5073155;28;20878;-58
2022/09/16 13:23:25;;;;;;;7.33;1.30;;;;;;;;;;5072669;28;20923;-57
2022/09/16 13:25:57;;;;;;;1.57;0.90;;;;;;;;;;5072722;28;20483;-58
2022/09/16 13:28:26;;;;;;;1.97;1.00;;;;;;;;;;5072832;28;20451;-58
2022/09/16 13:30:53;;;;;;;3.97;1.00;;;;;;;;;;5072691;28;20546;-58
2022/09/16 13:33:29;;;;;;;3.43;1.00;;;;;;;;;;5072089;28;20483;-58
2022/09/16 13:36:04;;;;;;;1.60;1.10;;;;;;;;;;5072722;28;20446;-57
2022/09/16 13:38:38;;;;;;;2.40;0.80;;;;;;;;;;5072656;28;20479;-58
2022/09/16 13:41:06;;;;;;;2.23;1.37;;;;;;;;;;5072864;28;20478;-58
2022/09/16 13:43:34;;;;;;;3.40;1.10;;;;;;;;;;5072375;28;20489;-58
2022/09/16 13:46:02;;;;;;;3.27;0.80;;;;;;;;;;5072427;28;20485;-58
2022/09/16 13:48:35;;;;;;;1.70;0.70;;;;;;;;;;5072320;28;20471;-58
2022/09/16 13:51:07;;;;;;;4.23;1.20;;;;;;;;;;5072484;28;20454;-57
2022/09/16 13:53:35;;;;;;;1.30;1.07;;;;;;;;;;5072635;28;20451;-58
2022/09/16 13:56:06;;;;;;;2.67;0.90;;;;;;;;;;5072594;28;20451;-58
2022/09/16 13:58:37;;;;;;;2.13;1.00;;;;;;;;;;5072420;28;20543;-58
2022/09/16 14:01:06;;;;;;;2.50;0.97;;;;;;;;;;5072507;28;20452;-57
2022/09/16 14:03:42;;;;;;;3.20;0.90;;;;;;;;;;5072607;28;20447;-59
2022/09/16 14:06:15;;;;;;;2.47;1.20;;;;;;;;;;5072516;28;20483;-58
2022/09/16 14:08:45;;;;;;;2.00;0.90;;;;;;;;;;5072395;28;20452;-57
2022/09/16 14:11:15;;;;;;;3.50;1.00;;;;;;;;;;5072209;28;20457;-57
2022/09/16 14:13:44;;;;;;;2.77;1.27;;;;;;;;;;5072488;28;20830;-58
2022/09/16 14:16:16;;;;;;;4.00;1.50;;;;;;;;;;5072335;28;20482;-57
2022/09/16 14:18:47;;;;;;;2.80;1.20;;;;;;;;;;5072391;28;20502;-58
2022/09/16 14:21:19;;;;;;;3.33;1.23;;;;;;;;;;5072291;28;20959;-58
2022/09/16 14:23:46;;;;;;;3.07;1.10;;;;;;;;;;5072125;28;20495;-58
2022/09/16 14:26:14;;;;;;;2.23;0.97;;;;;;;;;;5071921;28;20482;-58
2022/09/16 14:28:41;;;;;;;2.07;0.93;;;;;;;;;;5072038;28;20451;-57
2022/09/16 14:31:11;;;;;;;2.10;0.80;;;;;;;;;;5072160;28;20538;-57
2022/09/16 14:33:41;;;;;;;3.10;1.53;;;;;;;;;;5071827;28;20448;-57
2022/09/16 14:36:12;;;;;;;1.30;0.90;;;;;;;;;;5071969;28;20443;-60
2022/09/16 14:38:42;;;;;;;4.30;0.90;;;;;;;;;;5072272;28;20881;-58
2022/09/16 14:41:10;;;;;;;1.30;0.80;;;;;;;;;;5072088;28;20481;-57
2022/09/16 14:43:38;;;;;;;1.77;0.90;;;;;;;;;;5072000;28;20467;-58
2022/09/16 14:46:06;;;;;;;0.97;0.70;;;;;;;;;;5074439;28;20562;-57
2022/09/16 14:48:34;;;;;;;2.87;0.70;;;;;;;;;;5075464;28;21002;-57
2022/09/16 14:51:02;;;;;;;3.47;0.80;;;;;;;;;;5075536;28;20455;-57
2022/09/16 14:53:31;;;;;;;1.90;1.23;;;;;;;;;;5075805;28;20861;-57
2022/09/16 14:55:59;;;;;;;3.20;1.00;;;;;;;;;;5076057;28;20447;-58
2022/09/16 14:58:27;;;;;;;2.40;0.80;;;;;;;;;;5075705;28;20453;-58